sensor_id;sensor_type;location;lat;lon;timestamp;P1;durP1;ratioP1;P2;durP2;ratioP2
61019;SDS011;51384;45.494;9.150;2022-07-19T00:01:48;10.15;;;5.10;;
61019;SDS011;51384;45.494;9.150;2022-07-19T00:04:14;8.95;;;5.03;;
61019;SDS011;51384;45.494;9.150;2022-07-19T00:06:40;6.97;;;4.82;;
61019;SDS011;51384;45.494;9.150;2022-07-19T00:09:06;6.32;;;4.78;;
61019;SDS011;51384;45.494;9.150;2022-07-19T00:11:33;7.10;;;4.53;;
61019;SDS011;51384;45.494;9.150;2022-07-19T00:13:59;5.20;;;4.35;;
61019;SDS011;51384;45.494;9.150;2022-07-19T00:16:25;9.52;;;5.05;;
61019;SDS011;51384;45.494;9.150;2022-07-19T00:18:51;8.73;;;4.82;;
61019;SDS011;51384;45.494;9.150;2022-07-19T00:21:17;7.50;;;4.68;;
61019;SDS011;51384;45.494;9.150;2022-07-19T00:23:43;6.43;;;4.43;;
61019;SDS011;51384;45.494;9.150;2022-07-19T00:26:09;8.80;;;5.05;;
61019;SDS011;51384;45.494;9.150;2022-07-19T00:28:35;5.63;;;4.38;;
61019;SDS011;51384;45.494;9.150;2022-07-19T00:31:01;6.22;;;4.35;;
61019;SDS011;51384;45.494;9.150;2022-07-19T00:33:29;6.35;;;4.03;;
61019;SDS011;51384;45.494;9.150;2022-07-19T00:35:55;5.38;;;4.22;;
61019;SDS011;51384;45.494;9.150;2022-07-19T00:38:21;8.10;;;4.40;;
61019;SDS011;51384;45.494;9.150;2022-07-19T00:40:47;5.57;;;4.05;;
61019;SDS011;51384;45.494;9.150;2022-07-19T00:43:13;5.18;;;4.28;;
61019;SDS011;51384;45.494;9.150;2022-07-19T00:45:39;5.78;;;4.28;;
61019;SDS011;51384;45.494;9.150;2022-07-19T00:48:05;5.70;;;4.22;;
61019;SDS011;51384;45.494;9.150;2022-07-19T00:50:31;6.43;;;4.15;;
61019;SDS011;51384;45.494;9.150;2022-07-19T00:52:59;8.27;;;4.40;;
61019;SDS011;51384;45.494;9.150;2022-07-19T00:55:25;5.43;;;4.20;;
61019;SDS011;51384;45.494;9.150;2022-07-19T00:57:53;5.47;;;4.47;;
61019;SDS011;51384;45.494;9.150;2022-07-19T01:00:20;7.28;;;4.03;;
61019;SDS011;51384;45.494;9.150;2022-07-19T01:02:47;5.03;;;3.78;;
61019;SDS011;51384;45.494;9.150;2022-07-19T01:05:13;6.32;;;4.28;;
61019;SDS011;51384;45.494;9.150;2022-07-19T01:07:40;5.50;;;4.05;;
61019;SDS011;51384;45.494;9.150;2022-07-19T01:10:07;5.55;;;3.85;;
61019;SDS011;51384;45.494;9.150;2022-07-19T01:12:33;6.32;;;4.03;;
61019;SDS011;51384;45.494;9.150;2022-07-19T01:15:00;5.07;;;4.40;;
61019;SDS011;51384;45.494;9.150;2022-07-19T01:17:26;5.30;;;4.30;;
61019;SDS011;51384;45.494;9.150;2022-07-19T01:19:53;4.20;;;3.80;;
61019;SDS011;51384;45.494;9.150;2022-07-19T01:22:19;4.93;;;3.80;;
61019;SDS011;51384;45.494;9.150;2022-07-19T01:24:45;6.85;;;4.03;;
61019;SDS011;51384;45.494;9.150;2022-07-19T01:27:11;4.20;;;3.80;;
61019;SDS011;51384;45.494;9.150;2022-07-19T01:29:37;5.03;;;4.25;;
61019;SDS011;51384;45.494;9.150;2022-07-19T01:32:04;4.32;;;3.45;;
61019;SDS011;51384;45.494;9.150;2022-07-19T01:34:30;4.88;;;3.83;;
61019;SDS011;51384;45.494;9.150;2022-07-19T01:36:56;5.90;;;4.05;;
61019;SDS011;51384;45.494;9.150;2022-07-19T01:39:22;4.80;;;3.60;;
61019;SDS011;51384;45.494;9.150;2022-07-19T01:41:48;4.78;;;3.45;;
61019;SDS011;51384;45.494;9.150;2022-07-19T01:44:14;5.55;;;3.80;;
61019;SDS011;51384;45.494;9.150;2022-07-19T01:46:41;4.10;;;3.70;;
61019;SDS011;51384;45.494;9.150;2022-07-19T01:49:07;4.15;;;3.63;;
61019;SDS011;51384;45.494;9.150;2022-07-19T01:51:33;4.25;;;3.22;;
61019;SDS011;51384;45.494;9.150;2022-07-19T01:53:59;4.25;;;3.60;;
61019;SDS011;51384;45.494;9.150;2022-07-19T01:56:25;6.38;;;3.53;;
61019;SDS011;51384;45.494;9.150;2022-07-19T01:58:51;4.90;;;3.53;;
61019;SDS011;51384;45.494;9.150;2022-07-19T02:01:17;5.18;;;3.10;;
61019;SDS011;51384;45.494;9.150;2022-07-19T02:03:43;5.68;;;3.22;;
61019;SDS011;51384;45.494;9.150;2022-07-19T02:06:09;3.92;;;3.53;;
61019;SDS011;51384;45.494;9.150;2022-07-19T02:08:35;5.68;;;3.45;;
61019;SDS011;51384;45.494;9.150;2022-07-19T02:11:02;6.30;;;3.75;;
61019;SDS011;51384;45.494;9.150;2022-07-19T02:13:48;4.82;;;3.15;;
61019;SDS011;51384;45.494;9.150;2022-07-19T02:16:14;4.85;;;3.70;;
61019;SDS011;51384;45.494;9.150;2022-07-19T02:18:40;4.28;;;3.33;;
61019;SDS011;51384;45.494;9.150;2022-07-19T02:21:06;7.30;;;3.63;;
61019;SDS011;51384;45.494;9.150;2022-07-19T02:23:32;5.22;;;3.40;;
61019;SDS011;51384;45.494;9.150;2022-07-19T02:25:58;5.25;;;3.55;;
61019;SDS011;51384;45.494;9.150;2022-07-19T02:28:24;6.93;;;3.40;;
61019;SDS011;51384;45.494;9.150;2022-07-19T02:30:50;4.68;;;3.28;;
61019;SDS011;51384;45.494;9.150;2022-07-19T02:33:16;5.45;;;3.42;;
61019;SDS011;51384;45.494;9.150;2022-07-19T02:35:42;4.93;;;3.40;;
61019;SDS011;51384;45.494;9.150;2022-07-19T02:38:08;6.30;;;3.35;;
61019;SDS011;51384;45.494;9.150;2022-07-19T02:40:34;4.88;;;3.67;;
61019;SDS011;51384;45.494;9.150;2022-07-19T02:43:00;4.72;;;3.30;;
61019;SDS011;51384;45.494;9.150;2022-07-19T02:45:26;4.35;;;3.67;;
61019;SDS011;51384;45.494;9.150;2022-07-19T02:47:52;4.95;;;3.63;;
61019;SDS011;51384;45.494;9.150;2022-07-19T02:50:18;4.55;;;3.03;;
61019;SDS011;51384;45.494;9.150;2022-07-19T02:52:45;4.72;;;3.50;;
61019;SDS011;51384;45.494;9.150;2022-07-19T02:55:11;4.80;;;3.20;;
61019;SDS011;51384;45.494;9.150;2022-07-19T02:57:37;4.00;;;3.33;;
61019;SDS011;51384;45.494;9.150;2022-07-19T03:00:06;6.05;;;3.38;;
61019;SDS011;51384;45.494;9.150;2022-07-19T03:02:36;3.30;;;3.00;;
61019;SDS011;51384;45.494;9.150;2022-07-19T03:05:02;5.68;;;3.55;;
61019;SDS011;51384;45.494;9.150;2022-07-19T03:07:28;4.60;;;3.20;;
61019;SDS011;51384;45.494;9.150;2022-07-19T03:09:54;3.55;;;3.25;;
61019;SDS011;51384;45.494;9.150;2022-07-19T03:12:21;4.22;;;3.35;;
61019;SDS011;51384;45.494;9.150;2022-07-19T03:14:47;5.45;;;3.92;;
61019;SDS011;51384;45.494;9.150;2022-07-19T03:17:13;3.90;;;3.47;;
61019;SDS011;51384;45.494;9.150;2022-07-19T03:19:39;4.95;;;3.42;;
61019;SDS011;51384;45.494;9.150;2022-07-19T03:22:05;6.25;;;4.00;;
61019;SDS011;51384;45.494;9.150;2022-07-19T03:24:31;3.83;;;3.40;;
61019;SDS011;51384;45.494;9.150;2022-07-19T03:26:57;3.70;;;3.20;;
61019;SDS011;51384;45.494;9.150;2022-07-19T03:29:23;5.63;;;3.83;;
61019;SDS011;51384;45.494;9.150;2022-07-19T03:31:49;6.22;;;3.55;;
61019;SDS011;51384;45.494;9.150;2022-07-19T03:34:15;7.40;;;4.15;;
61019;SDS011;51384;45.494;9.150;2022-07-19T03:36:42;5.00;;;3.67;;
61019;SDS011;51384;45.494;9.150;2022-07-19T03:39:08;4.30;;;3.33;;
61019;SDS011;51384;45.494;9.150;2022-07-19T03:41:34;4.03;;;3.53;;
61019;SDS011;51384;45.494;9.150;2022-07-19T03:44:00;6.72;;;4.47;;
61019;SDS011;51384;45.494;9.150;2022-07-19T03:46:26;5.10;;;3.92;;
61019;SDS011;51384;45.494;9.150;2022-07-19T03:48:54;5.25;;;4.28;;
61019;SDS011;51384;45.494;9.150;2022-07-19T03:51:20;5.13;;;4.15;;
61019;SDS011;51384;45.494;9.150;2022-07-19T03:53:46;11.70;;;5.10;;
61019;SDS011;51384;45.494;9.150;2022-07-19T03:56:13;8.23;;;4.32;;
61019;SDS011;51384;45.494;9.150;2022-07-19T03:58:39;8.05;;;4.60;;
61019;SDS011;51384;45.494;9.150;2022-07-19T04:01:05;5.78;;;4.22;;
61019;SDS011;51384;45.494;9.150;2022-07-19T04:03:35;8.82;;;4.63;;
61019;SDS011;51384;45.494;9.150;2022-07-19T04:06:01;7.57;;;4.72;;
61019;SDS011;51384;45.494;9.150;2022-07-19T04:08:27;10.60;;;4.50;;
61019;SDS011;51384;45.494;9.150;2022-07-19T04:10:53;6.00;;;4.50;;
61019;SDS011;51384;45.494;9.150;2022-07-19T04:13:19;8.68;;;4.10;;
61019;SDS011;51384;45.494;9.150;2022-07-19T04:15:45;4.72;;;3.67;;
61019;SDS011;51384;45.494;9.150;2022-07-19T04:18:11;5.13;;;3.75;;
61019;SDS011;51384;45.494;9.150;2022-07-19T04:20:37;5.95;;;4.60;;
61019;SDS011;51384;45.494;9.150;2022-07-19T04:23:03;6.63;;;4.05;;
61019;SDS011;51384;45.494;9.150;2022-07-19T04:25:29;6.50;;;5.13;;
61019;SDS011;51384;45.494;9.150;2022-07-19T04:27:55;6.57;;;4.13;;
61019;SDS011;51384;45.494;9.150;2022-07-19T04:30:21;5.68;;;4.13;;
61019;SDS011;51384;45.494;9.150;2022-07-19T04:32:48;8.32;;;4.90;;
61019;SDS011;51384;45.494;9.150;2022-07-19T04:35:14;6.60;;;4.20;;
61019;SDS011;51384;45.494;9.150;2022-07-19T04:37:41;5.32;;;4.03;;
61019;SDS011;51384;45.494;9.150;2022-07-19T04:40:08;8.00;;;5.13;;
61019;SDS011;51384;45.494;9.150;2022-07-19T04:42:34;6.22;;;4.43;;
61019;SDS011;51384;45.494;9.150;2022-07-19T04:45:00;8.75;;;5.22;;
61019;SDS011;51384;45.494;9.150;2022-07-19T04:47:26;5.00;;;3.92;;
61019;SDS011;51384;45.494;9.150;2022-07-19T04:49:52;5.82;;;3.90;;
61019;SDS011;51384;45.494;9.150;2022-07-19T04:52:18;7.43;;;4.80;;
61019;SDS011;51384;45.494;9.150;2022-07-19T04:54:44;7.20;;;5.43;;
61019;SDS011;51384;45.494;9.150;2022-07-19T04:57:10;5.00;;;4.50;;
61019;SDS011;51384;45.494;9.150;2022-07-19T04:59:36;7.40;;;4.53;;
61019;SDS011;51384;45.494;9.150;2022-07-19T05:02:02;9.20;;;5.88;;
61019;SDS011;51384;45.494;9.150;2022-07-19T05:04:28;7.47;;;4.93;;
61019;SDS011;51384;45.494;9.150;2022-07-19T05:06:54;9.88;;;4.90;;
61019;SDS011;51384;45.494;9.150;2022-07-19T05:09:24;8.88;;;5.10;;
61019;SDS011;51384;45.494;9.150;2022-07-19T05:11:50;9.70;;;5.75;;
61019;SDS011;51384;45.494;9.150;2022-07-19T05:14:17;7.25;;;4.82;;
61019;SDS011;51384;45.494;9.150;2022-07-19T05:16:43;6.22;;;4.55;;
61019;SDS011;51384;45.494;9.150;2022-07-19T05:19:10;8.80;;;5.00;;
61019;SDS011;51384;45.494;9.150;2022-07-19T05:21:36;5.82;;;4.90;;
61019;SDS011;51384;45.494;9.150;2022-07-19T05:24:02;9.07;;;5.68;;
61019;SDS011;51384;45.494;9.150;2022-07-19T05:26:28;8.23;;;5.38;;
61019;SDS011;51384;45.494;9.150;2022-07-19T05:28:55;10.27;;;5.60;;
61019;SDS011;51384;45.494;9.150;2022-07-19T05:31:21;7.13;;;4.97;;
61019;SDS011;51384;45.494;9.150;2022-07-19T05:33:47;7.70;;;4.82;;
61019;SDS011;51384;45.494;9.150;2022-07-19T05:36:13;7.68;;;4.80;;
61019;SDS011;51384;45.494;9.150;2022-07-19T05:38:39;7.63;;;5.40;;
61019;SDS011;51384;45.494;9.150;2022-07-19T05:41:06;6.32;;;5.35;;
61019;SDS011;51384;45.494;9.150;2022-07-19T05:43:33;7.78;;;5.05;;
61019;SDS011;51384;45.494;9.150;2022-07-19T05:46:00;8.10;;;5.05;;
61019;SDS011;51384;45.494;9.150;2022-07-19T05:48:26;8.82;;;5.05;;
61019;SDS011;51384;45.494;9.150;2022-07-19T05:50:52;7.93;;;4.38;;
61019;SDS011;51384;45.494;9.150;2022-07-19T05:53:18;8.35;;;5.55;;
61019;SDS011;51384;45.494;9.150;2022-07-19T05:55:44;10.68;;;5.57;;
61019;SDS011;51384;45.494;9.150;2022-07-19T05:58:10;8.32;;;4.95;;
61019;SDS011;51384;45.494;9.150;2022-07-19T06:00:36;9.68;;;5.32;;
61019;SDS011;51384;45.494;9.150;2022-07-19T06:03:03;7.63;;;5.20;;
61019;SDS011;51384;45.494;9.150;2022-07-19T06:05:29;7.97;;;5.03;;
61019;SDS011;51384;45.494;9.150;2022-07-19T06:07:55;6.03;;;5.28;;
61019;SDS011;51384;45.494;9.150;2022-07-19T06:10:21;6.13;;;4.70;;
61019;SDS011;51384;45.494;9.150;2022-07-19T06:12:47;8.48;;;5.22;;
61019;SDS011;51384;45.494;9.150;2022-07-19T06:15:13;9.07;;;4.80;;
61019;SDS011;51384;45.494;9.150;2022-07-19T06:17:39;6.60;;;4.50;;
61019;SDS011;51384;45.494;9.150;2022-07-19T06:20:05;5.93;;;4.65;;
61019;SDS011;51384;45.494;9.150;2022-07-19T06:22:31;5.93;;;4.70;;
61019;SDS011;51384;45.494;9.150;2022-07-19T06:24:57;7.75;;;4.70;;
61019;SDS011;51384;45.494;9.150;2022-07-19T06:27:24;7.45;;;4.80;;
61019;SDS011;51384;45.494;9.150;2022-07-19T06:29:50;9.25;;;4.72;;
61019;SDS011;51384;45.494;9.150;2022-07-19T06:32:16;8.65;;;4.13;;
61019;SDS011;51384;45.494;9.150;2022-07-19T06:34:42;5.80;;;4.38;;
61019;SDS011;51384;45.494;9.150;2022-07-19T06:37:08;12.00;;;4.60;;
61019;SDS011;51384;45.494;9.150;2022-07-19T06:39:34;9.10;;;5.18;;
61019;SDS011;51384;45.494;9.150;2022-07-19T06:42:00;6.55;;;4.50;;
61019;SDS011;51384;45.494;9.150;2022-07-19T06:44:27;6.70;;;4.30;;
61019;SDS011;51384;45.494;9.150;2022-07-19T06:46:53;5.78;;;3.88;;
61019;SDS011;51384;45.494;9.150;2022-07-19T06:49:19;8.27;;;4.10;;
61019;SDS011;51384;45.494;9.150;2022-07-19T06:51:45;5.38;;;4.10;;
61019;SDS011;51384;45.494;9.150;2022-07-19T06:54:11;6.97;;;3.78;;
61019;SDS011;51384;45.494;9.150;2022-07-19T06:56:37;8.95;;;4.57;;
61019;SDS011;51384;45.494;9.150;2022-07-19T06:59:03;6.15;;;4.15;;
61019;SDS011;51384;45.494;9.150;2022-07-19T07:01:29;7.20;;;4.53;;
61019;SDS011;51384;45.494;9.150;2022-07-19T07:03:55;6.20;;;4.30;;
61019;SDS011;51384;45.494;9.150;2022-07-19T07:06:21;8.88;;;4.38;;
61019;SDS011;51384;45.494;9.150;2022-07-19T07:08:47;6.50;;;4.43;;
61019;SDS011;51384;45.494;9.150;2022-07-19T07:11:13;6.10;;;4.20;;
61019;SDS011;51384;45.494;9.150;2022-07-19T07:13:39;7.60;;;3.92;;
61019;SDS011;51384;45.494;9.150;2022-07-19T07:16:05;6.55;;;4.47;;
61019;SDS011;51384;45.494;9.150;2022-07-19T07:18:31;10.02;;;4.47;;
61019;SDS011;51384;45.494;9.150;2022-07-19T07:20:58;4.68;;;4.18;;
61019;SDS011;51384;45.494;9.150;2022-07-19T07:23:24;6.60;;;4.78;;
61019;SDS011;51384;45.494;9.150;2022-07-19T07:25:50;7.10;;;4.20;;
61019;SDS011;51384;45.494;9.150;2022-07-19T07:28:18;6.43;;;4.53;;
61019;SDS011;51384;45.494;9.150;2022-07-19T07:30:44;4.68;;;3.95;;
61019;SDS011;51384;45.494;9.150;2022-07-19T07:33:10;6.85;;;4.20;;
61019;SDS011;51384;45.494;9.150;2022-07-19T07:35:36;6.82;;;3.95;;
61019;SDS011;51384;45.494;9.150;2022-07-19T07:38:03;7.82;;;4.40;;
61019;SDS011;51384;45.494;9.150;2022-07-19T07:40:29;8.02;;;4.20;;
61019;SDS011;51384;45.494;9.150;2022-07-19T07:42:55;7.20;;;4.32;;
61019;SDS011;51384;45.494;9.150;2022-07-19T07:45:21;6.28;;;4.43;;
61019;SDS011;51384;45.494;9.150;2022-07-19T07:47:47;8.65;;;4.50;;
61019;SDS011;51384;45.494;9.150;2022-07-19T07:50:13;6.30;;;4.50;;
61019;SDS011;51384;45.494;9.150;2022-07-19T07:52:39;4.50;;;4.10;;
61019;SDS011;51384;45.494;9.150;2022-07-19T07:55:06;6.50;;;5.20;;
61019;SDS011;51384;45.494;9.150;2022-07-19T07:57:32;7.22;;;4.43;;
61019;SDS011;51384;45.494;9.150;2022-07-19T07:59:58;6.10;;;4.55;;
61019;SDS011;51384;45.494;9.150;2022-07-19T08:02:24;6.82;;;4.03;;
61019;SDS011;51384;45.494;9.150;2022-07-19T08:04:50;9.20;;;4.10;;
61019;SDS011;51384;45.494;9.150;2022-07-19T08:07:16;5.72;;;4.30;;
61019;SDS011;51384;45.494;9.150;2022-07-19T08:09:42;7.28;;;6.05;;
61019;SDS011;51384;45.494;9.150;2022-07-19T08:12:08;7.00;;;3.92;;
61019;SDS011;51384;45.494;9.150;2022-07-19T08:14:34;6.03;;;4.05;;
61019;SDS011;51384;45.494;9.150;2022-07-19T08:17:00;7.32;;;4.30;;
61019;SDS011;51384;45.494;9.150;2022-07-19T08:19:26;5.90;;;3.83;;
61019;SDS011;51384;45.494;9.150;2022-07-19T08:21:52;7.72;;;4.57;;
61019;SDS011;51384;45.494;9.150;2022-07-19T08:24:18;6.95;;;3.83;;
61019;SDS011;51384;45.494;9.150;2022-07-19T08:26:44;5.53;;;3.95;;
61019;SDS011;51384;45.494;9.150;2022-07-19T08:29:10;6.47;;;4.30;;
61019;SDS011;51384;45.494;9.150;2022-07-19T08:31:36;5.07;;;4.22;;
61019;SDS011;51384;45.494;9.150;2022-07-19T08:34:03;5.32;;;4.03;;
61019;SDS011;51384;45.494;9.150;2022-07-19T08:36:30;6.72;;;3.70;;
61019;SDS011;51384;45.494;9.150;2022-07-19T08:38:56;6.65;;;4.07;;
61019;SDS011;51384;45.494;9.150;2022-07-19T08:41:22;6.13;;;4.32;;
61019;SDS011;51384;45.494;9.150;2022-07-19T08:43:49;5.38;;;4.10;;
61019;SDS011;51384;45.494;9.150;2022-07-19T08:46:15;4.78;;;3.78;;
61019;SDS011;51384;45.494;9.150;2022-07-19T08:48:44;5.80;;;3.78;;
61019;SDS011;51384;45.494;9.150;2022-07-19T08:51:11;8.80;;;4.80;;
61019;SDS011;51384;45.494;9.150;2022-07-19T08:53:37;6.95;;;4.18;;
61019;SDS011;51384;45.494;9.150;2022-07-19T08:56:06;5.75;;;4.22;;
61019;SDS011;51384;45.494;9.150;2022-07-19T08:58:52;4.72;;;3.95;;
61019;SDS011;51384;45.494;9.150;2022-07-19T09:01:18;6.20;;;4.22;;
61019;SDS011;51384;45.494;9.150;2022-07-19T09:06:36;7.85;;;4.85;;
61019;SDS011;51384;45.494;9.150;2022-07-19T09:09:03;4.43;;;3.97;;
61019;SDS011;51384;45.494;9.150;2022-07-19T09:11:36;9.43;;;5.00;;
61019;SDS011;51384;45.494;9.150;2022-07-19T09:14:06;8.02;;;4.65;;
61019;SDS011;51384;45.494;9.150;2022-07-19T09:19:17;7.28;;;4.53;;
61019;SDS011;51384;45.494;9.150;2022-07-19T09:21:53;7.32;;;4.97;;
61019;SDS011;51384;45.494;9.150;2022-07-19T09:24:19;4.93;;;4.13;;
61019;SDS011;51384;45.494;9.150;2022-07-19T09:29:21;9.57;;;5.15;;
61019;SDS011;51384;45.494;9.150;2022-07-19T09:31:57;8.57;;;5.18;;
61019;SDS011;51384;45.494;9.150;2022-07-19T09:34:30;5.57;;;4.10;;
61019;SDS011;51384;45.494;9.150;2022-07-19T09:37:13;6.05;;;4.45;;
61019;SDS011;51384;45.494;9.150;2022-07-19T09:39:40;8.82;;;5.30;;
61019;SDS011;51384;45.494;9.150;2022-07-19T09:42:13;5.85;;;4.82;;
61019;SDS011;51384;45.494;9.150;2022-07-19T09:44:39;7.05;;;4.95;;
61019;SDS011;51384;45.494;9.150;2022-07-19T09:47:05;6.07;;;4.80;;
61019;SDS011;51384;45.494;9.150;2022-07-19T09:49:31;6.22;;;4.70;;
61019;SDS011;51384;45.494;9.150;2022-07-19T09:51:57;7.00;;;5.03;;
61019;SDS011;51384;45.494;9.150;2022-07-19T09:54:26;7.07;;;5.20;;
61019;SDS011;51384;45.494;9.150;2022-07-19T09:56:53;6.20;;;4.45;;
61019;SDS011;51384;45.494;9.150;2022-07-19T09:59:19;5.68;;;5.10;;
61019;SDS011;51384;45.494;9.150;2022-07-19T10:01:46;6.28;;;4.53;;
61019;SDS011;51384;45.494;9.150;2022-07-19T10:04:14;8.60;;;5.03;;
61019;SDS011;51384;45.494;9.150;2022-07-19T10:06:41;7.80;;;5.22;;
61019;SDS011;51384;45.494;9.150;2022-07-19T10:09:08;5.28;;;4.53;;
61019;SDS011;51384;45.494;9.150;2022-07-19T10:11:35;6.38;;;4.25;;
61019;SDS011;51384;45.494;9.150;2022-07-19T10:14:01;7.60;;;4.60;;
61019;SDS011;51384;45.494;9.150;2022-07-19T10:19:05;5.93;;;4.82;;
61019;SDS011;51384;45.494;9.150;2022-07-19T10:21:34;5.05;;;4.35;;
61019;SDS011;51384;45.494;9.150;2022-07-19T10:24:01;6.95;;;4.80;;
61019;SDS011;51384;45.494;9.150;2022-07-19T10:29:33;6.40;;;4.75;;
61019;SDS011;51384;45.494;9.150;2022-07-19T10:32:14;5.05;;;4.55;;
61019;SDS011;51384;45.494;9.150;2022-07-19T10:34:39;10.32;;;4.97;;
61019;SDS011;51384;45.494;9.150;2022-07-19T10:37:05;6.25;;;4.68;;
61019;SDS011;51384;45.494;9.150;2022-07-19T10:39:32;6.90;;;4.40;;
61019;SDS011;51384;45.494;9.150;2022-07-19T10:44:35;9.65;;;5.20;;
61019;SDS011;51384;45.494;9.150;2022-07-19T10:47:01;6.05;;;4.68;;
61019;SDS011;51384;45.494;9.150;2022-07-19T10:49:49;6.50;;;4.25;;
61019;SDS011;51384;45.494;9.150;2022-07-19T10:52:30;6.32;;;5.10;;
61019;SDS011;51384;45.494;9.150;2022-07-19T11:00:24;7.32;;;4.85;;
61019;SDS011;51384;45.494;9.150;2022-07-19T11:02:51;4.97;;;4.18;;
61019;SDS011;51384;45.494;9.150;2022-07-19T11:05:25;5.40;;;4.22;;
61019;SDS011;51384;45.494;9.150;2022-07-19T11:07:52;6.82;;;4.60;;
61019;SDS011;51384;45.494;9.150;2022-07-19T11:10:22;6.05;;;4.60;;
61019;SDS011;51384;45.494;9.150;2022-07-19T11:12:48;7.53;;;4.63;;
61019;SDS011;51384;45.494;9.150;2022-07-19T11:15:15;5.10;;;4.30;;
61019;SDS011;51384;45.494;9.150;2022-07-19T11:17:58;5.65;;;4.47;;
61019;SDS011;51384;45.494;9.150;2022-07-19T11:20:25;5.10;;;4.25;;
61019;SDS011;51384;45.494;9.150;2022-07-19T11:22:51;5.70;;;4.15;;
61019;SDS011;51384;45.494;9.150;2022-07-19T11:25:27;5.05;;;4.55;;
61019;SDS011;51384;45.494;9.150;2022-07-19T11:27:54;4.47;;;4.05;;
61019;SDS011;51384;45.494;9.150;2022-07-19T11:30:21;12.00;;;9.40;;
61019;SDS011;51384;45.494;9.150;2022-07-19T11:32:54;4.93;;;4.43;;
61019;SDS011;51384;45.494;9.150;2022-07-19T11:35:20;4.55;;;4.15;;
61019;SDS011;51384;45.494;9.150;2022-07-19T11:37:46;6.25;;;4.53;;
61019;SDS011;51384;45.494;9.150;2022-07-19T11:40:13;6.03;;;4.97;;
61019;SDS011;51384;45.494;9.150;2022-07-19T11:42:42;6.82;;;4.55;;
61019;SDS011;51384;45.494;9.150;2022-07-19T11:45:09;7.68;;;5.30;;
61019;SDS011;51384;45.494;9.150;2022-07-19T11:47:35;5.07;;;4.30;;
61019;SDS011;51384;45.494;9.150;2022-07-19T11:50:05;6.82;;;4.20;;
61019;SDS011;51384;45.494;9.150;2022-07-19T11:52:41;6.63;;;4.13;;
61019;SDS011;51384;45.494;9.150;2022-07-19T11:55:07;5.38;;;4.28;;
61019;SDS011;51384;45.494;9.150;2022-07-19T11:57:33;4.85;;;4.22;;
61019;SDS011;51384;45.494;9.150;2022-07-19T11:59:59;8.30;;;5.32;;
61019;SDS011;51384;45.494;9.150;2022-07-19T12:02:26;6.28;;;5.32;;
61019;SDS011;51384;45.494;9.150;2022-07-19T12:04:52;5.65;;;5.03;;
61019;SDS011;51384;45.494;9.150;2022-07-19T12:07:18;5.10;;;4.60;;
61019;SDS011;51384;45.494;9.150;2022-07-19T12:09:44;5.40;;;4.90;;
61019;SDS011;51384;45.494;9.150;2022-07-19T12:12:11;5.97;;;4.95;;
61019;SDS011;51384;45.494;9.150;2022-07-19T12:14:38;6.22;;;4.63;;
61019;SDS011;51384;45.494;9.150;2022-07-19T12:19:41;6.25;;;5.50;;
61019;SDS011;51384;45.494;9.150;2022-07-19T12:22:30;7.30;;;4.80;;
61019;SDS011;51384;45.494;9.150;2022-07-19T12:24:58;5.60;;;4.82;;
61019;SDS011;51384;45.494;9.150;2022-07-19T12:27:24;6.05;;;4.90;;
61019;SDS011;51384;45.494;9.150;2022-07-19T12:29:54;5.28;;;4.78;;
61019;SDS011;51384;45.494;9.150;2022-07-19T12:32:35;5.45;;;4.90;;
61019;SDS011;51384;45.494;9.150;2022-07-19T12:35:11;8.70;;;4.68;;
61019;SDS011;51384;45.494;9.150;2022-07-19T12:37:39;6.40;;;5.80;;
61019;SDS011;51384;45.494;9.150;2022-07-19T12:40:07;6.20;;;5.47;;
61019;SDS011;51384;45.494;9.150;2022-07-19T12:42:56;7.80;;;5.35;;
61019;SDS011;51384;45.494;9.150;2022-07-19T12:45:25;7.07;;;5.18;;
61019;SDS011;51384;45.494;9.150;2022-07-19T12:47:51;6.32;;;5.72;;
61019;SDS011;51384;45.494;9.150;2022-07-19T12:50:19;8.00;;;4.90;;
61019;SDS011;51384;45.494;9.150;2022-07-19T12:52:45;5.22;;;4.72;;
61019;SDS011;51384;45.494;9.150;2022-07-19T12:55:11;6.20;;;5.65;;
61019;SDS011;51384;45.494;9.150;2022-07-19T12:57:37;6.57;;;5.57;;
61019;SDS011;51384;45.494;9.150;2022-07-19T13:00:03;8.98;;;5.55;;
61019;SDS011;51384;45.494;9.150;2022-07-19T13:02:30;6.70;;;5.82;;
61019;SDS011;51384;45.494;9.150;2022-07-19T13:04:56;5.60;;;5.10;;
61019;SDS011;51384;45.494;9.150;2022-07-19T13:07:22;8.00;;;5.75;;
61019;SDS011;51384;45.494;9.150;2022-07-19T13:09:48;6.28;;;5.68;;
61019;SDS011;51384;45.494;9.150;2022-07-19T13:12:14;5.78;;;5.20;;
61019;SDS011;51384;45.494;9.150;2022-07-19T13:14:40;5.93;;;4.93;;
61019;SDS011;51384;45.494;9.150;2022-07-19T13:17:07;5.60;;;4.53;;
61019;SDS011;51384;45.494;9.150;2022-07-19T13:19:37;5.70;;;5.10;;
61019;SDS011;51384;45.494;9.150;2022-07-19T13:22:03;6.50;;;4.90;;
61019;SDS011;51384;45.494;9.150;2022-07-19T13:24:29;6.13;;;4.40;;
61019;SDS011;51384;45.494;9.150;2022-07-19T13:26:56;7.53;;;6.75;;
61019;SDS011;51384;45.494;9.150;2022-07-19T13:29:22;6.03;;;5.10;;
61019;SDS011;51384;45.494;9.150;2022-07-19T13:31:48;8.82;;;5.78;;
61019;SDS011;51384;45.494;9.150;2022-07-19T13:34:14;7.35;;;5.60;;
61019;SDS011;51384;45.494;9.150;2022-07-19T13:36:40;6.00;;;5.07;;
61019;SDS011;51384;45.494;9.150;2022-07-19T13:39:07;5.88;;;4.90;;
61019;SDS011;51384;45.494;9.150;2022-07-19T13:41:36;6.03;;;5.10;;
61019;SDS011;51384;45.494;9.150;2022-07-19T13:44:03;5.85;;;5.35;;
61019;SDS011;51384;45.494;9.150;2022-07-19T13:46:29;6.13;;;5.28;;
61019;SDS011;51384;45.494;9.150;2022-07-19T13:48:55;6.22;;;5.10;;
61019;SDS011;51384;45.494;9.150;2022-07-19T13:51:22;7.00;;;5.35;;
61019;SDS011;51384;45.494;9.150;2022-07-19T13:53:48;5.78;;;5.10;;
61019;SDS011;51384;45.494;9.150;2022-07-19T13:56:14;5.68;;;5.10;;
61019;SDS011;51384;45.494;9.150;2022-07-19T13:58:40;5.47;;;4.75;;
61019;SDS011;51384;45.494;9.150;2022-07-19T14:01:06;5.68;;;5.18;;
61019;SDS011;51384;45.494;9.150;2022-07-19T14:03:32;8.65;;;5.60;;
61019;SDS011;51384;45.494;9.150;2022-07-19T14:05:58;5.90;;;5.30;;
61019;SDS011;51384;45.494;9.150;2022-07-19T14:08:24;6.03;;;5.32;;
61019;SDS011;51384;45.494;9.150;2022-07-19T14:10:50;8.82;;;5.70;;
61019;SDS011;51384;45.494;9.150;2022-07-19T14:13:16;5.35;;;4.85;;
61019;SDS011;51384;45.494;9.150;2022-07-19T14:15:42;7.95;;;5.85;;
61019;SDS011;51384;45.494;9.150;2022-07-19T14:18:09;6.53;;;5.43;;
61019;SDS011;51384;45.494;9.150;2022-07-19T14:20:36;6.90;;;6.20;;
61019;SDS011;51384;45.494;9.150;2022-07-19T14:23:02;5.95;;;5.43;;
61019;SDS011;51384;45.494;9.150;2022-07-19T14:25:28;7.97;;;6.13;;
61019;SDS011;51384;45.494;9.150;2022-07-19T14:27:54;8.07;;;5.70;;
61019;SDS011;51384;45.494;9.150;2022-07-19T14:30:20;7.47;;;5.90;;
61019;SDS011;51384;45.494;9.150;2022-07-19T14:32:47;6.55;;;5.60;;
61019;SDS011;51384;45.494;9.150;2022-07-19T14:35:13;7.85;;;7.07;;
61019;SDS011;51384;45.494;9.150;2022-07-19T14:37:41;6.70;;;5.75;;
61019;SDS011;51384;45.494;9.150;2022-07-19T14:40:08;8.15;;;6.25;;
61019;SDS011;51384;45.494;9.150;2022-07-19T14:42:34;7.15;;;6.10;;
61019;SDS011;51384;45.494;9.150;2022-07-19T14:45:00;5.68;;;5.05;;
61019;SDS011;51384;45.494;9.150;2022-07-19T14:47:28;7.47;;;5.63;;
61019;SDS011;51384;45.494;9.150;2022-07-19T14:49:54;6.13;;;5.50;;
61019;SDS011;51384;45.494;9.150;2022-07-19T14:52:20;8.35;;;6.43;;
61019;SDS011;51384;45.494;9.150;2022-07-19T14:54:46;9.60;;;5.95;;
61019;SDS011;51384;45.494;9.150;2022-07-19T14:57:13;8.40;;;5.85;;
61019;SDS011;51384;45.494;9.150;2022-07-19T14:59:39;7.47;;;5.82;;
61019;SDS011;51384;45.494;9.150;2022-07-19T15:02:05;6.70;;;6.00;;
61019;SDS011;51384;45.494;9.150;2022-07-19T15:04:33;6.38;;;5.78;;
61019;SDS011;51384;45.494;9.150;2022-07-19T15:06:59;9.15;;;5.75;;
61019;SDS011;51384;45.494;9.150;2022-07-19T15:09:25;8.60;;;5.47;;
61019;SDS011;51384;45.494;9.150;2022-07-19T15:11:51;10.77;;;8.77;;